createdAt,value
2023-03-01T00:01:15.557Z,5.68
2023-03-01T00:03:43.629Z,5.78
2023-03-01T00:06:10.771Z,5.69
2023-03-01T00:08:38.160Z,5.68
2023-03-01T00:11:21.649Z,5.71
2023-03-01T00:13:50.747Z,5.71
2023-03-01T00:16:20.690Z,5.70
2023-03-01T00:18:47.895Z,5.72
2023-03-01T00:21:15.329Z,5.64
2023-03-01T00:23:42.661Z,5.66
2023-03-01T00:26:13.821Z,5.63
2023-03-01T00:28:41.648Z,5.69
2023-03-01T00:31:11.832Z,5.70
2023-03-01T00:33:39.326Z,5.83
2023-03-01T00:36:06.908Z,5.79
2023-03-01T00:38:42.130Z,5.64
2023-03-01T00:41:11.484Z,5.83
2023-03-01T00:43:39.006Z,5.85
2023-03-01T00:46:08.885Z,5.79
2023-03-01T00:48:36.303Z,5.80
2023-03-01T00:51:19.264Z,5.85
2023-03-01T00:53:47.223Z,5.83
2023-03-01T00:56:15.632Z,5.91
2023-03-01T00:58:43.999Z,5.82
2023-03-01T01:01:19.194Z,5.97
2023-03-01T01:03:52.598Z,5.85
2023-03-01T01:06:40.384Z,5.85
2023-03-01T01:09:08.341Z,5.86
2023-03-01T01:11:37.321Z,5.82
2023-03-01T01:14:04.500Z,5.68
2023-03-01T01:16:31.911Z,5.83
2023-03-01T01:18:59.212Z,5.89
2023-03-01T01:21:28.075Z,5.87
2023-03-01T01:23:55.443Z,5.85
2023-03-01T01:26:25.980Z,5.89
2023-03-01T01:28:53.966Z,5.89
2023-03-01T01:31:21.328Z,6.02
2023-03-01T01:33:48.329Z,6.03
2023-03-01T01:36:15.144Z,6.02
2023-03-01T01:38:43.661Z,5.97
2023-03-01T01:41:12.580Z,5.90
2023-03-01T01:43:45.721Z,5.93
2023-03-01T01:46:29.961Z,5.99
2023-03-01T01:49:04.909Z,5.94
2023-03-01T01:51:41.439Z,5.91
2023-03-01T01:54:17.486Z,5.98
2023-03-01T01:56:52.689Z,5.85
2023-03-01T01:59:19.934Z,5.72
2023-03-01T02:01:46.747Z,5.58
2023-03-01T02:04:13.695Z,5.75
2023-03-01T02:06:55.341Z,5.75
2023-03-01T02:09:24.110Z,5.82
2023-03-01T02:11:52.444Z,5.83
2023-03-01T02:14:19.657Z,5.60
2023-03-01T02:16:47.086Z,5.69
2023-03-01T02:19:42.481Z,5.68
2023-03-01T02:22:12.806Z,5.74
2023-03-01T02:24:58.571Z,5.81
2023-03-01T02:27:32.016Z,5.71
2023-03-01T02:29:59.103Z,5.75
2023-03-01T02:32:26.433Z,5.77
2023-03-01T02:34:56.643Z,5.77
2023-03-01T02:37:26.014Z,5.82
2023-03-01T02:40:03.898Z,5.87
2023-03-01T02:42:42.433Z,5.84
2023-03-01T02:45:11.202Z,5.73
2023-03-01T02:47:38.014Z,5.69
2023-03-01T02:50:32.632Z,5.67
2023-03-01T02:53:12.361Z,5.77
2023-03-01T02:55:39.680Z,5.67
2023-03-01T02:58:06.785Z,5.71
2023-03-01T03:00:41.207Z,5.83
2023-03-01T03:03:08.858Z,5.85
2023-03-01T03:05:35.624Z,5.74
2023-03-01T03:08:04.695Z,5.75
2023-03-01T03:10:40.590Z,5.77
2023-03-01T03:13:13.705Z,5.74
2023-03-01T03:15:43.104Z,5.79
2023-03-01T03:18:13.280Z,5.74
2023-03-01T03:20:42.914Z,5.73
2023-03-01T03:23:10.204Z,5.73
2023-03-01T03:25:38.857Z,5.71
2023-03-01T03:28:10.709Z,5.67
2023-03-01T03:30:41.989Z,5.65
2023-03-01T03:33:13.107Z,5.76
2023-03-01T03:35:44.537Z,5.71
2023-03-01T03:38:17.070Z,5.65
2023-03-01T03:40:45.276Z,5.69
2023-03-01T03:43:16.123Z,5.48
2023-03-01T03:45:45.984Z,5.54
2023-03-01T03:48:14.527Z,5.52
2023-03-01T03:50:42.534Z,5.70
2023-03-01T03:53:13.094Z,5.65
2023-03-01T03:55:40.591Z,5.48
2023-03-01T03:58:10.713Z,5.38
2023-03-01T04:00:45.690Z,5.45
2023-03-01T04:03:14.565Z,5.02
2023-03-01T04:05:42.043Z,5.33
2023-03-01T04:08:10.062Z,5.31
2023-03-01T04:10:41.255Z,5.41
2023-03-01T04:13:13.917Z,5.51
2023-03-01T04:15:41.665Z,5.55
2023-03-01T04:18:12.102Z,5.39
2023-03-01T04:20:40.092Z,5.42
2023-03-01T04:23:14.570Z,5.34
2023-03-01T04:25:42.362Z,5.33
2023-03-01T04:28:10.479Z,5.24
2023-03-01T04:30:39.806Z,5.24
2023-03-01T04:33:08.493Z,5.24
2023-03-01T04:35:36.739Z,5.25
2023-03-01T04:38:04.661Z,5.24
2023-03-01T04:40:31.685Z,5.22
2023-03-01T04:42:58.595Z,5.24
2023-03-01T04:45:25.688Z,5.42
2023-03-01T04:47:55.291Z,5.31
2023-03-01T04:50:22.717Z,5.32
2023-03-01T04:52:49.523Z,5.50
2023-03-01T04:55:17.025Z,5.47
2023-03-01T04:57:43.870Z,5.46
2023-03-01T05:00:21.467Z,5.38
2023-03-01T05:02:50.280Z,5.47
2023-03-01T05:05:17.285Z,5.48
2023-03-01T05:07:44.356Z,5.42
2023-03-01T05:10:11.374Z,5.31
2023-03-01T05:12:38.465Z,5.35
2023-03-01T05:15:08.343Z,5.37
2023-03-01T05:17:35.472Z,5.43
2023-03-01T05:20:02.344Z,5.26
2023-03-01T05:22:29.611Z,5.29
2023-03-01T05:24:56.703Z,5.38
2023-03-01T05:27:23.584Z,5.28
2023-03-01T05:29:50.768Z,5.42
2023-03-01T05:32:17.650Z,5.39
2023-03-01T05:34:45.172Z,5.31
2023-03-01T05:37:12.330Z,5.48
2023-03-01T05:39:39.112Z,5.56
2023-03-01T05:42:06.492Z,5.62
2023-03-01T05:44:33.407Z,5.55
2023-03-01T05:47:00.579Z,5.53
2023-03-01T05:49:27.368Z,5.59
2023-03-01T05:51:54.862Z,5.57
2023-03-01T05:54:23.031Z,5.59
2023-03-01T05:56:50.045Z,5.55
2023-03-01T05:59:17.478Z,5.69
2023-03-01T06:01:44.757Z,5.46
2023-03-01T06:04:11.867Z,5.66
2023-03-01T06:06:39.532Z,5.64
2023-03-01T06:09:08.432Z,5.71
2023-03-01T06:11:36.681Z,5.62
2023-03-01T06:14:04.647Z,5.51
2023-03-01T06:16:32.269Z,5.51
2023-03-01T06:18:59.199Z,5.57
2023-03-01T06:21:26.214Z,5.63
2023-03-01T06:23:53.245Z,5.60
2023-03-01T06:26:20.507Z,5.66
2023-03-01T06:28:47.306Z,5.72
2023-03-01T06:31:14.554Z,5.56
2023-03-01T06:33:41.423Z,5.58
2023-03-01T06:36:09.303Z,5.63
2023-03-01T06:38:36.241Z,5.75
2023-03-01T06:41:03.295Z,5.67
2023-03-01T06:43:30.230Z,5.61
2023-03-01T06:45:57.394Z,5.79
2023-03-01T06:48:24.216Z,5.68
2023-03-01T06:50:51.162Z,5.72
2023-03-01T06:53:18.043Z,5.73
2023-03-01T06:55:45.051Z,5.83
2023-03-01T06:58:12.405Z,5.66
2023-03-01T07:00:41.725Z,5.84
2023-03-01T07:03:09.668Z,5.89
2023-03-01T07:05:36.920Z,5.92
2023-03-01T07:08:04.394Z,5.98
2023-03-01T07:10:31.144Z,5.79
2023-03-01T07:12:59.383Z,5.82
2023-03-01T07:15:27.884Z,5.80
2023-03-01T07:17:55.257Z,5.86
2023-03-01T07:20:26.638Z,5.75
2023-03-01T07:22:55.252Z,5.96
2023-03-01T07:25:22.138Z,5.88
2023-03-01T07:27:53.514Z,6.13
2023-03-01T07:30:21.573Z,6.11
2023-03-01T07:32:48.762Z,6.04
2023-03-01T07:35:16.032Z,6.13
2023-03-01T07:37:43.059Z,6.15
2023-03-01T07:40:11.243Z,6.03
2023-03-01T07:42:38.313Z,6.07
2023-03-01T07:45:06.828Z,6.02
2023-03-01T07:47:33.817Z,5.88
2023-03-01T07:50:02.409Z,5.81
2023-03-01T07:52:30.025Z,5.98
2023-03-01T07:54:57.063Z,5.97
2023-03-01T07:57:24.699Z,6.03
2023-03-01T07:59:51.696Z,5.99
2023-03-01T08:02:18.494Z,5.90
2023-03-01T08:04:45.733Z,5.95
2023-03-01T08:07:12.644Z,5.85
2023-03-01T08:09:39.634Z,5.82
2023-03-01T08:12:07.102Z,6.14
2023-03-01T08:14:34.143Z,6.11
2023-03-01T08:17:01.210Z,6.10
2023-03-01T08:19:29.365Z,5.68
2023-03-01T08:21:59.188Z,5.94
2023-03-01T08:24:26.600Z,5.99
2023-03-01T08:26:53.695Z,6.22
2023-03-01T08:29:21.260Z,6.13
2023-03-01T08:31:48.842Z,6.20
2023-03-01T08:34:18.469Z,6.29
2023-03-01T08:36:47.373Z,6.39
2023-03-01T08:39:17.362Z,6.48
2023-03-01T08:41:46.435Z,6.56
2023-03-01T08:44:17.684Z,6.43
2023-03-01T08:46:46.762Z,6.36
2023-03-01T08:49:17.321Z,6.45
2023-03-01T08:51:45.799Z,6.25
2023-03-01T08:54:22.150Z,6.42
2023-03-01T08:56:50.023Z,6.64
2023-03-01T08:59:18.369Z,6.61
2023-03-01T09:01:45.765Z,6.74
2023-03-01T09:04:13.720Z,6.58
2023-03-01T09:06:40.770Z,6.44
2023-03-01T09:09:13.053Z,6.43
2023-03-01T09:11:40.348Z,6.68
2023-03-01T09:14:08.149Z,6.53
2023-03-01T09:16:37.170Z,6.57
2023-03-01T09:19:04.486Z,6.41
2023-03-01T09:21:40.158Z,6.64
2023-03-01T09:24:15.787Z,6.59
2023-03-01T09:26:43.704Z,6.62
2023-03-01T09:29:10.864Z,6.50
2023-03-01T09:31:38.217Z,6.45
2023-03-01T09:34:06.563Z,6.53
2023-03-01T09:36:34.658Z,6.62
2023-03-01T09:39:02.391Z,6.56
2023-03-01T09:41:48.119Z,6.76
2023-03-01T09:44:35.577Z,6.77
2023-03-01T09:47:03.456Z,6.80
2023-03-01T09:49:34.466Z,6.86
2023-03-01T09:52:01.441Z,6.88
2023-03-01T09:54:28.710Z,6.83
2023-03-01T09:57:16.011Z,6.99
2023-03-01T09:59:52.153Z,6.96
2023-03-01T10:02:33.999Z,6.89
2023-03-01T10:05:28.582Z,6.93
2023-03-01T10:08:21.100Z,6.96
2023-03-01T10:10:48.864Z,6.88
2023-03-01T10:13:44.747Z,7.03
2023-03-01T10:16:17.994Z,6.98
2023-03-01T10:18:48.712Z,6.93
2023-03-01T10:21:19.852Z,6.96
2023-03-01T10:23:50.950Z,6.93
2023-03-01T10:26:26.680Z,7.01
2023-03-01T10:29:00.164Z,7.04
2023-03-01T10:31:53.467Z,6.94
2023-03-01T10:34:30.521Z,7.11
2023-03-01T10:37:11.584Z,7.09
2023-03-01T10:39:55.468Z,7.14
2023-03-01T10:42:35.047Z,7.16
2023-03-01T10:45:20.503Z,7.06
2023-03-01T10:47:47.737Z,6.94
2023-03-01T10:50:24.540Z,7.13
2023-03-01T10:53:04.227Z,7.09
2023-03-01T10:55:37.238Z,7.01
2023-03-01T10:58:10.697Z,6.78
2023-03-01T11:00:48.868Z,6.95
2023-03-01T11:03:21.846Z,7.16
2023-03-01T11:05:54.096Z,7.51
2023-03-01T11:08:35.336Z,7.45
2023-03-01T11:11:06.503Z,7.58
2023-03-01T11:13:33.750Z,7.48
2023-03-01T11:16:04.225Z,7.59
2023-03-01T11:18:46.408Z,7.42
2023-03-01T11:21:16.765Z,7.20
2023-03-01T11:23:47.756Z,7.44
2023-03-01T11:26:18.567Z,7.62
2023-03-01T11:28:51.455Z,7.63
2023-03-01T11:31:20.325Z,7.48
2023-03-01T11:34:17.683Z,7.62
2023-03-01T11:36:57.707Z,7.64
2023-03-01T11:40:01.115Z,7.59
2023-03-01T11:42:55.545Z,7.59
2023-03-01T11:45:26.416Z,7.53
2023-03-01T11:47:56.575Z,7.64
2023-03-01T11:50:36.072Z,7.56
2023-03-01T11:53:13.103Z,7.38
2023-03-01T11:56:00.844Z,7.39
2023-03-01T11:58:54.058Z,7.28
2023-03-01T12:01:38.015Z,7.21
2023-03-01T12:04:15.575Z,7.30
2023-03-01T12:06:48.797Z,7.20
2023-03-01T12:09:21.823Z,7.08
2023-03-01T12:11:55.075Z,7.10
2023-03-01T12:14:32.139Z,7.09
2023-03-01T12:17:09.176Z,7.11
2023-03-01T12:19:58.764Z,7.22
2023-03-01T12:23:19.362Z,7.06
2023-03-01T12:25:53.941Z,7.07
2023-03-01T12:28:48.437Z,6.75
2023-03-01T12:31:40.010Z,7.10
2023-03-01T12:34:43.471Z,7.08
2023-03-01T12:37:45.056Z,7.17
2023-03-01T12:40:15.054Z,7.24
2023-03-01T12:42:53.048Z,7.21
2023-03-01T12:45:49.420Z,7.30
2023-03-01T12:48:22.651Z,7.39
2023-03-01T12:50:55.357Z,7.24
2023-03-01T12:53:30.211Z,7.27
2023-03-01T12:56:07.873Z,7.05
2023-03-01T12:59:00.933Z,7.32
2023-03-01T13:01:41.156Z,7.05
2023-03-01T13:04:26.415Z,7.08
2023-03-01T13:07:23.666Z,7.01
2023-03-01T13:10:02.695Z,7.03
2023-03-01T13:12:48.702Z,7.06
2023-03-01T13:15:24.351Z,7.04
2023-03-01T13:17:54.254Z,7.05
2023-03-01T13:20:44.025Z,7.08
2023-03-01T13:23:14.421Z,6.95
2023-03-01T13:26:18.213Z,6.95
2023-03-01T13:28:45.431Z,6.94
2023-03-01T13:31:32.345Z,6.92
2023-03-01T13:34:08.404Z,6.90
2023-03-01T13:36:37.235Z,6.97
2023-03-01T13:39:27.443Z,7.02
2023-03-01T13:41:56.817Z,7.14
2023-03-01T13:44:39.729Z,7.05
2023-03-01T13:47:07.048Z,6.98
2023-03-01T13:50:03.725Z,6.91
2023-03-01T13:52:41.601Z,6.11
2023-03-01T13:55:14.772Z,6.89
2023-03-01T13:57:45.686Z,6.69
2023-03-01T14:00:40.212Z,6.70
2023-03-01T14:03:15.905Z,6.87
2023-03-01T14:06:11.251Z,6.82
2023-03-01T14:08:43.261Z,6.94
2023-03-01T14:11:47.653Z,6.86
2023-03-01T14:14:23.482Z,6.93
2023-03-01T14:17:05.757Z,6.96
2023-03-01T14:19:34.674Z,6.93
2023-03-01T14:22:23.544Z,6.85
2023-03-01T14:24:55.462Z,6.76
2023-03-01T14:27:24.453Z,6.77
2023-03-01T14:30:01.163Z,6.98
2023-03-01T14:32:30.998Z,6.91
2023-03-01T14:35:00.517Z,6.87
2023-03-01T14:37:35.685Z,6.93
2023-03-01T14:40:05.295Z,6.82
2023-03-01T14:42:37.338Z,6.80
2023-03-01T14:45:15.748Z,6.79
2023-03-01T14:47:45.501Z,6.85
2023-03-01T14:50:18.894Z,6.81
2023-03-01T14:52:49.713Z,6.79
2023-03-01T14:55:27.106Z,6.70
2023-03-01T14:57:54.305Z,6.67
2023-03-01T15:00:24.685Z,6.84
2023-03-01T15:02:54.421Z,6.75
2023-03-01T15:05:34.835Z,6.66
2023-03-01T15:08:04.795Z,6.79
2023-03-01T15:10:34.905Z,6.80
2023-03-01T15:13:23.558Z,6.69
2023-03-01T15:15:53.146Z,6.53
2023-03-01T15:18:28.817Z,6.64
2023-03-01T15:20:56.899Z,6.59
2023-03-01T15:23:28.288Z,6.72
2023-03-01T15:25:59.633Z,6.73
2023-03-01T15:28:34.826Z,6.75
2023-03-01T15:31:23.631Z,6.73
2023-03-01T15:33:51.578Z,6.72
2023-03-01T15:36:50.977Z,6.65
2023-03-01T15:39:44.532Z,6.56
2023-03-01T15:42:29.878Z,6.66
2023-03-01T15:45:17.001Z,6.74
2023-03-01T15:47:59.575Z,6.59
2023-03-01T15:50:31.224Z,6.58
2023-03-01T15:53:00.608Z,6.73
2023-03-01T15:55:34.261Z,6.64
2023-03-01T15:58:15.290Z,6.68
2023-03-01T16:00:57.997Z,6.66
2023-03-01T16:03:26.592Z,6.63
2023-03-01T16:05:53.449Z,6.70
2023-03-01T16:08:21.338Z,6.64
2023-03-01T16:10:51.035Z,6.64
2023-03-01T16:13:18.808Z,6.45
2023-03-01T16:15:46.247Z,6.43
2023-03-01T16:18:13.235Z,6.62
2023-03-01T16:20:41.129Z,6.50
2023-03-01T16:23:09.863Z,6.57
2023-03-01T16:25:37.342Z,6.53
2023-03-01T16:28:10.001Z,6.62
2023-03-01T16:30:39.211Z,6.56
2023-03-01T16:33:23.029Z,6.61
2023-03-01T16:35:52.244Z,6.63
2023-03-01T16:38:19.067Z,6.42
2023-03-01T16:40:51.853Z,6.53
2023-03-01T16:43:18.835Z,6.59
2023-03-01T16:45:46.476Z,6.57
2023-03-01T16:48:14.020Z,6.39
2023-03-01T16:50:41.284Z,6.57
2023-03-01T16:53:08.276Z,6.58
2023-03-01T16:55:35.444Z,6.43
2023-03-01T16:58:02.804Z,6.38
2023-03-01T17:00:29.898Z,6.27
2023-03-01T17:02:56.979Z,6.50
2023-03-01T17:05:25.008Z,6.35
2023-03-01T17:07:52.192Z,6.42
2023-03-01T17:10:19.133Z,6.35
2023-03-01T17:12:49.538Z,6.23
2023-03-01T17:15:16.571Z,6.45
2023-03-01T17:17:43.476Z,6.31
2023-03-01T17:20:12.530Z,6.54
2023-03-01T17:22:39.354Z,6.52
2023-03-01T17:25:10.366Z,6.60
2023-03-01T17:27:37.961Z,6.52
2023-03-01T17:30:07.581Z,6.32
2023-03-01T17:32:34.896Z,6.06
2023-03-01T17:35:01.754Z,6.29
2023-03-01T17:37:28.701Z,6.36
2023-03-01T17:39:55.722Z,6.34
2023-03-01T17:42:22.605Z,6.33
2023-03-01T17:44:49.503Z,6.33
2023-03-01T17:47:16.649Z,6.08
2023-03-01T17:49:43.373Z,6.39
2023-03-01T17:52:10.208Z,6.22
2023-03-01T17:54:37.016Z,6.11
2023-03-01T17:57:04.044Z,6.16
2023-03-01T17:59:31.343Z,6.09
2023-03-01T18:02:01.902Z,6.15
2023-03-01T18:04:29.700Z,6.22
2023-03-01T18:06:56.574Z,6.12
2023-03-01T18:09:23.878Z,6.29
2023-03-01T18:11:50.694Z,6.28
2023-03-01T18:14:17.632Z,6.36
2023-03-01T18:16:44.824Z,6.15
2023-03-01T18:19:13.054Z,6.24
2023-03-01T18:21:40.196Z,6.12
2023-03-01T18:24:07.261Z,6.11
2023-03-01T18:26:34.464Z,5.98
2023-03-01T18:29:03.522Z,6.24
2023-03-01T18:31:33.667Z,6.13
2023-03-01T18:34:01.370Z,6.14
2023-03-01T18:36:32.067Z,5.98
2023-03-01T18:38:59.548Z,6.10
2023-03-01T18:41:28.585Z,6.09
2023-03-01T18:43:57.165Z,6.15
2023-03-01T18:46:24.713Z,6.07
2023-03-01T18:48:53.235Z,6.04
2023-03-01T18:51:23.900Z,6.15
2023-03-01T18:53:51.284Z,6.14
2023-03-01T18:56:18.192Z,6.18
2023-03-01T18:58:45.390Z,6.23
2023-03-01T19:01:17.557Z,6.23
2023-03-01T19:03:44.809Z,6.28
2023-03-01T19:06:11.983Z,6.29
2023-03-01T19:08:40.942Z,6.33
2023-03-01T19:11:09.570Z,6.27
2023-03-01T19:13:38.526Z,6.29
2023-03-01T19:16:14.422Z,6.35
2023-03-01T19:18:50.460Z,6.22
2023-03-01T19:21:19.865Z,6.27
2023-03-01T19:23:48.833Z,6.36
2023-03-01T19:26:18.918Z,6.14
2023-03-01T19:28:46.509Z,6.12
2023-03-01T19:31:19.857Z,6.21
2023-03-01T19:33:47.334Z,6.19
2023-03-01T19:36:14.887Z,6.16
2023-03-01T19:38:43.472Z,6.31
2023-03-01T19:41:14.860Z,6.34
2023-03-01T19:43:43.691Z,6.38
2023-03-01T19:46:11.514Z,6.31
2023-03-01T19:48:40.630Z,6.34
2023-03-01T19:51:08.894Z,6.32
2023-03-01T19:53:37.807Z,6.38
2023-03-01T19:56:05.433Z,6.31
2023-03-01T19:58:33.451Z,6.36
2023-03-01T20:01:01.159Z,6.22
2023-03-01T20:03:33.553Z,6.14
2023-03-01T20:06:07.404Z,6.10
2023-03-01T20:08:34.440Z,5.91
2023-03-01T20:11:06.555Z,5.97
2023-03-01T20:13:34.380Z,6.13
2023-03-01T20:16:01.288Z,6.15
2023-03-01T20:18:28.782Z,6.07
2023-03-01T20:20:56.098Z,6.20
2023-03-01T20:23:23.021Z,6.10
2023-03-01T20:25:50.475Z,6.21
2023-03-01T20:28:19.310Z,6.09
2023-03-01T20:30:46.313Z,6.12
2023-03-01T20:33:13.515Z,6.08
2023-03-01T20:35:42.530Z,6.00
2023-03-01T20:38:09.694Z,5.99
2023-03-01T20:40:37.689Z,6.09
2023-03-01T20:43:04.551Z,6.03
2023-03-01T20:45:31.870Z,5.97
2023-03-01T20:47:58.683Z,6.05
2023-03-01T20:50:25.541Z,5.98
2023-03-01T20:52:52.537Z,6.02
2023-03-01T20:55:19.530Z,6.03
2023-03-01T20:57:46.379Z,6.01
2023-03-01T21:00:13.578Z,5.91
2023-03-01T21:02:40.526Z,5.85
2023-03-01T21:05:07.723Z,5.92
2023-03-01T21:07:34.578Z,5.87
2023-03-01T21:10:01.517Z,5.64
2023-03-01T21:12:28.906Z,5.97
2023-03-01T21:14:56.004Z,6.12
2023-03-01T21:17:23.079Z,5.82
2023-03-01T21:19:50.813Z,5.88
2023-03-01T21:22:18.159Z,5.91
2023-03-01T21:24:45.217Z,6.01
2023-03-01T21:27:12.101Z,5.97
2023-03-01T21:29:41.061Z,6.03
2023-03-01T21:32:09.732Z,5.76
2023-03-01T21:34:37.423Z,6.01
2023-03-01T21:37:05.875Z,6.00
2023-03-01T21:39:33.838Z,6.04
2023-03-01T21:42:04.906Z,6.09
2023-03-01T21:44:33.002Z,6.01
2023-03-01T21:46:59.795Z,6.05
2023-03-01T21:49:27.075Z,6.08
2023-03-01T21:51:54.453Z,6.09
2023-03-01T21:54:22.043Z,6.08
2023-03-01T21:56:49.608Z,6.07
2023-03-01T21:59:22.409Z,6.10
2023-03-01T22:01:50.938Z,6.11
2023-03-01T22:04:18.717Z,6.07
2023-03-01T22:06:47.246Z,6.08
2023-03-01T22:09:24.811Z,6.10
2023-03-01T22:12:02.609Z,6.17
2023-03-01T22:14:31.500Z,6.09
2023-03-01T22:16:58.670Z,6.11
2023-03-01T22:19:28.815Z,5.96
2023-03-01T22:21:55.727Z,5.99
2023-03-01T22:24:25.174Z,6.14
2023-03-01T22:26:53.100Z,6.23
2023-03-01T22:29:26.567Z,6.14
2023-03-01T22:31:55.323Z,6.14
2023-03-01T22:34:24.597Z,6.13
2023-03-01T22:36:51.943Z,6.12
2023-03-01T22:39:21.163Z,5.93
2023-03-01T22:41:49.829Z,6.04
2023-03-01T22:44:22.291Z,6.10
2023-03-01T22:46:49.911Z,6.00
2023-03-01T22:49:18.967Z,6.14
2023-03-01T22:51:47.784Z,6.20
2023-03-01T22:54:16.498Z,6.09
2023-03-01T22:56:43.893Z,6.13
2023-03-01T22:59:14.608Z,6.20
2023-03-01T23:01:46.453Z,6.22
2023-03-01T23:04:15.335Z,6.07
2023-03-01T23:06:53.980Z,6.22
2023-03-01T23:09:31.425Z,6.19
2023-03-01T23:12:00.203Z,6.23
2023-03-01T23:14:30.875Z,6.15
2023-03-01T23:16:58.655Z,6.03
2023-03-01T23:19:25.580Z,6.18
2023-03-01T23:21:54.665Z,6.21
2023-03-01T23:24:24.037Z,6.17
2023-03-01T23:26:53.489Z,6.08
2023-03-01T23:29:20.896Z,6.17
2023-03-01T23:31:48.616Z,6.10
2023-03-01T23:34:15.464Z,6.09
2023-03-01T23:36:45.056Z,6.16
2023-03-01T23:39:13.824Z,6.04
2023-03-01T23:41:41.107Z,6.11
2023-03-01T23:44:08.095Z,6.07
2023-03-01T23:46:37.422Z,6.03
2023-03-01T23:49:04.724Z,5.98
2023-03-01T23:51:31.715Z,6.08
2023-03-01T23:54:01.649Z,6.05
2023-03-01T23:56:35.404Z,5.99
2023-03-01T23:59:23.636Z,5.99
